Time;durP1;ratioP1;P1;durP2;ratioP2;P2;SDS_P1;SDS_P2;PMS_P1;PMS_P2;Temp;Humidity;BMP_temperature;BMP_pressure;BME280_temperature;BME280_humidity;BME280_pressure;Samples;Min_cycle;Max_cycle;Signal;HPM_P1;HPM_P2
2024/01/29 00:00:21;;;;;;;6.63;5.23;;;;;;;;;;5069557;27;88218;-60
2024/01/29 00:02:50;;;;;;;7.17;4.33;;;;;;;;;;5070229;27;89459;-60
2024/01/29 00:05:18;;;;;;;7.63;4.10;;;;;;;;;;5065900;27;87541;-60
2024/01/29 00:07:47;;;;;;;12.47;4.57;;;;;;;;;;5069315;27;87993;-60
2024/01/29 00:10:17;;;;;;;7.87;3.77;;;;;;;;;;5071614;27;87706;-60
2024/01/29 00:12:46;;;;;;;4.57;3.00;;;;;;;;;;5071418;27;89655;-60
2024/01/29 00:15:15;;;;;;;5.83;3.80;;;;;;;;;;5073649;27;89137;-61
2024/01/29 00:17:45;;;;;;;5.03;3.80;;;;;;;;;;5072833;27;88762;-60
2024/01/29 00:20:15;;;;;;;6.03;3.60;;;;;;;;;;5071318;27;87626;-60
2024/01/29 00:22:44;;;;;;;4.47;3.10;;;;;;;;;;5072422;27;89636;-61
2024/01/29 00:25:15;;;;;;;6.63;3.93;;;;;;;;;;5073277;27;89053;-61
2024/01/29 00:27:44;;;;;;;5.50;3.43;;;;;;;;;;5070570;27;89755;-60
2024/01/29 00:30:14;;;;;;;3.53;3.20;;;;;;;;;;5075444;27;87681;-60
2024/01/29 00:32:42;;;;;;;5.03;3.33;;;;;;;;;;5070490;27;88521;-60
2024/01/29 00:35:10;;;;;;;6.93;4.00;;;;;;;;;;5072421;27;89121;-60
2024/01/29 00:37:39;;;;;;;3.50;3.17;;;;;;;;;;5068919;27;88794;-60
2024/01/29 00:40:08;;;;;;;5.40;3.20;;;;;;;;;;5072229;27;87635;-60
2024/01/29 00:42:37;;;;;;;5.73;3.37;;;;;;;;;;5070054;27;89791;-61
2024/01/29 00:45:06;;;;;;;4.00;2.93;;;;;;;;;;5072251;27;89250;-61
2024/01/29 00:47:36;;;;;;;4.13;3.13;;;;;;;;;;5071490;27;88815;-62
2024/01/29 00:50:08;;;;;;;6.83;3.53;;;;;;;;;;5072701;27;87837;-61
2024/01/29 00:52:36;;;;;;;4.23;3.37;;;;;;;;;;5073088;27;88672;-61
2024/01/29 00:55:05;;;;;;;4.40;2.90;;;;;;;;;;5072310;27;87585;-61
2024/01/29 00:57:34;;;;;;;5.33;3.03;;;;;;;;;;5070212;27;87973;-60
2024/01/29 01:00:02;;;;;;;4.33;2.70;;;;;;;;;;5072131;27;87450;-61
2024/01/29 01:02:31;;;;;;;3.77;2.53;;;;;;;;;;5074240;27;89728;-61
2024/01/29 01:05:01;;;;;;;4.53;2.83;;;;;;;;;;5068866;27;89085;-61
2024/01/29 01:07:29;;;;;;;4.57;2.93;;;;;;;;;;5072170;27;89018;-61
2024/01/29 01:09:58;;;;;;;4.90;3.10;;;;;;;;;;5073436;27;87583;-62
2024/01/29 01:12:26;;;;;;;4.10;2.70;;;;;;;;;;5071873;27;87616;-63
2024/01/29 01:14:55;;;;;;;3.60;3.30;;;;;;;;;;5069615;27;89011;-63
2024/01/29 01:17:23;;;;;;;7.53;3.57;;;;;;;;;;5070839;27;88587;-63
2024/01/29 01:19:52;;;;;;;4.47;2.70;;;;;;;;;;5071714;27;87597;-62
2024/01/29 01:22:22;;;;;;;4.10;2.80;;;;;;;;;;5068577;27;88504;-62
2024/01/29 01:24:50;;;;;;;3.97;2.33;;;;;;;;;;5071054;27;90277;-62
2024/01/29 01:27:19;;;;;;;2.97;2.47;;;;;;;;;;5068144;27;88971;-62
2024/01/29 01:29:48;;;;;;;2.93;2.20;;;;;;;;;;5070770;27;88576;-62
2024/01/29 01:32:16;;;;;;;4.20;2.53;;;;;;;;;;5069819;27;89783;-62
2024/01/29 01:34:46;;;;;;;3.63;2.57;;;;;;;;;;5071575;27;87523;-62
2024/01/29 01:37:15;;;;;;;2.80;2.17;;;;;;;;;;5071917;27;87578;-62
2024/01/29 01:39:45;;;;;;;3.27;2.40;;;;;;;;;;5070605;27;87935;-62
2024/01/29 01:42:14;;;;;;;3.90;2.13;;;;;;;;;;5069893;27;89715;-62
2024/01/29 01:44:47;;;;;;;3.57;2.20;;;;;;;;;;5071717;27;88233;-63
2024/01/29 01:47:15;;;;;;;3.97;2.50;;;;;;;;;;5069572;27;88790;-62
2024/01/29 01:49:43;;;;;;;3.83;2.40;;;;;;;;;;5071047;27;87498;-62
2024/01/29 01:52:12;;;;;;;3.23;2.13;;;;;;;;;;5071570;27;88552;-62
2024/01/29 01:54:40;;;;;;;2.70;2.00;;;;;;;;;;5067825;27;88144;-62
2024/01/29 01:57:10;;;;;;;4.70;2.00;;;;;;;;;;5070974;27;88753;-62
2024/01/29 01:59:39;;;;;;;3.77;2.00;;;;;;;;;;5067937;27;87631;-62
2024/01/29 02:02:08;;;;;;;4.57;2.57;;;;;;;;;;5070868;27;89717;-62
2024/01/29 02:04:36;;;;;;;2.77;1.80;;;;;;;;;;5071597;27;90191;-62
2024/01/29 02:07:05;;;;;;;3.03;2.43;;;;;;;;;;5070521;27;90059;-62
2024/01/29 02:09:35;;;;;;;1.77;1.67;;;;;;;;;;5070123;27;87712;-62
2024/01/29 02:12:04;;;;;;;1.67;1.50;;;;;;;;;;5070931;27;89682;-62
2024/01/29 02:14:34;;;;;;;3.80;1.90;;;;;;;;;;5072421;27;89205;-63
2024/01/29 02:17:04;;;;;;;1.90;1.80;;;;;;;;;;5068582;27;87724;-62
2024/01/29 02:19:33;;;;;;;1.83;1.60;;;;;;;;;;5070401;27;87586;-62
2024/01/29 02:22:02;;;;;;;5.13;2.20;;;;;;;;;;5067736;27;89324;-62
2024/01/29 02:24:32;;;;;;;2.10;1.90;;;;;;;;;;5069369;27;88422;-62
2024/01/29 02:27:01;;;;;;;2.70;2.20;;;;;;;;;;5068143;27;88779;-62
2024/01/29 02:29:30;;;;;;;2.13;1.30;;;;;;;;;;5070474;27;88016;-61
2024/01/29 02:31:59;;;;;;;2.50;1.90;;;;;;;;;;5066513;27;89837;-61
2024/01/29 02:34:27;;;;;;;3.20;1.77;;;;;;;;;;5069101;27;89156;-62
2024/01/29 02:36:56;;;;;;;1.47;1.37;;;;;;;;;;5071717;27;88761;-62
2024/01/29 02:39:25;;;;;;;2.50;2.07;;;;;;;;;;5070836;27;87624;-62
2024/01/29 02:41:56;;;;;;;1.17;1.07;;;;;;;;;;5067246;27;88606;-61
2024/01/29 02:44:24;;;;;;;2.20;2.00;;;;;;;;;;5070248;27;89152;-61
2024/01/29 02:46:57;;;;;;;1.53;1.43;;;;;;;;;;5071219;27;87555;-62
2024/01/29 02:49:27;;;;;;;2.13;1.70;;;;;;;;;;5068743;27;87436;-62
2024/01/29 02:51:59;;;;;;;1.77;1.60;;;;;;;;;;5068331;27;88400;-61
2024/01/29 02:54:27;;;;;;;3.87;2.23;;;;;;;;;;5069461;27;88978;-61
2024/01/29 02:56:58;;;;;;;1.50;1.27;;;;;;;;;;5070881;27;87583;-62
2024/01/29 02:59:26;;;;;;;3.03;1.80;;;;;;;;;;5070244;27;87556;-61
2024/01/29 03:01:55;;;;;;;3.63;1.63;;;;;;;;;;5067734;27;89604;-62
2024/01/29 03:04:24;;;;;;;5.63;1.60;;;;;;;;;;5067149;27;87882;-61
2024/01/29 03:06:52;;;;;;;1.60;1.40;;;;;;;;;;5063631;27;88863;-60
2024/01/29 03:09:21;;;;;;;1.80;1.50;;;;;;;;;;5064720;27;87715;-62
2024/01/29 03:11:49;;;;;;;2.20;1.70;;;;;;;;;;5066553;27;89650;-62
2024/01/29 03:14:21;;;;;;;1.40;1.20;;;;;;;;;;5068174;27;88298;-61
2024/01/29 03:16:51;;;;;;;1.87;1.20;;;;;;;;;;5057635;27;88771;-61
2024/01/29 03:19:21;;;;;;;1.27;1.17;;;;;;;;;;5062248;27;90573;-62
2024/01/29 03:21:50;;;;;;;1.60;1.30;;;;;;;;;;5057745;27;88511;-62
2024/01/29 03:24:20;;;;;;;1.60;1.40;;;;;;;;;;5056874;27;89064;-61
2024/01/29 03:26:48;;;;;;;1.80;1.63;;;;;;;;;;5056943;27;87797;-62
2024/01/29 03:29:17;;;;;;;2.33;1.43;;;;;;;;;;5056028;27;87501;-61
2024/01/29 03:31:48;;;;;;;2.57;1.90;;;;;;;;;;5059274;27;89607;-61
2024/01/29 03:34:16;;;;;;;3.00;2.30;;;;;;;;;;5064238;27;89152;-62
2024/01/29 03:36:47;;;;;;;4.73;2.43;;;;;;;;;;5056101;27;87547;-61
2024/01/29 03:39:17;;;;;;;3.33;2.40;;;;;;;;;;5050384;27;92148;-61
2024/01/29 03:41:45;;;;;;;3.30;2.50;;;;;;;;;;5053995;27;89638;-62
2024/01/29 03:44:15;;;;;;;3.43;2.30;;;;;;;;;;5057217;27;89108;-62
2024/01/29 03:46:46;;;;;;;5.03;2.40;;;;;;;;;;5057454;27;88165;-63
2024/01/29 03:49:16;;;;;;;3.33;2.23;;;;;;;;;;5060154;27;87544;-62
2024/01/29 03:51:47;;;;;;;3.77;2.13;;;;;;;;;;5059299;27;89812;-63
2024/01/29 03:54:17;;;;;;;3.97;2.20;;;;;;;;;;5057877;27;88090;-62
2024/01/29 03:56:48;;;;;;;3.53;2.43;;;;;;;;;;5070047;27;88793;-62
2024/01/29 03:59:19;;;;;;;3.60;2.53;;;;;;;;;;5071340;27;88132;-62
2024/01/29 04:01:48;;;;;;;2.97;2.43;;;;;;;;;;5066761;27;89701;-61
2024/01/29 04:04:18;;;;;;;3.47;1.90;;;;;;;;;;5068750;27;87471;-62
2024/01/29 04:06:48;;;;;;;2.53;2.30;;;;;;;;;;5067125;27;87453;-61
2024/01/29 04:09:21;;;;;;;6.07;2.40;;;;;;;;;;5068699;27;88054;-62
2024/01/29 04:11:50;;;;;;;3.73;1.53;;;;;;;;;;5067554;27;88498;-62
2024/01/29 04:14:20;;;;;;;4.07;2.77;;;;;;;;;;5061894;27;88174;-62
2024/01/29 04:16:53;;;;;;;5.00;2.43;;;;;;;;;;5066320;27;89232;-62
2024/01/29 04:19:24;;;;;;;3.60;2.80;;;;;;;;;;5072871;27;87676;-62
2024/01/29 04:21:57;;;;;;;2.77;2.17;;;;;;;;;;5070736;27;89638;-62
2024/01/29 04:24:25;;;;;;;2.87;2.20;;;;;;;;;;5068965;27;91248;-62
2024/01/29 04:26:54;;;;;;;5.20;3.10;;;;;;;;;;5072330;27;87919;-62
2024/01/29 04:29:23;;;;;;;3.07;2.57;;;;;;;;;;5074140;27;87665;-62
2024/01/29 04:31:52;;;;;;;3.70;2.63;;;;;;;;;;5072812;27;89745;-62
2024/01/29 04:34:20;;;;;;;2.50;2.30;;;;;;;;;;5068589;27;90251;-62
2024/01/29 04:36:50;;;;;;;2.80;2.37;;;;;;;;;;5073427;27;89563;-62
2024/01/29 04:39:18;;;;;;;2.83;2.53;;;;;;;;;;5072953;27;87881;-62
2024/01/29 04:41:47;;;;;;;2.73;2.53;;;;;;;;;;5069290;27;89570;-62
2024/01/29 04:44:17;;;;;;;4.40;2.77;;;;;;;;;;5062219;27;88083;-61
2024/01/29 04:46:46;;;;;;;6.30;2.20;;;;;;;;;;5061893;27;87862;-61
2024/01/29 04:49:15;;;;;;;5.73;2.80;;;;;;;;;;5061307;27;87569;-62
2024/01/29 04:51:46;;;;;;;3.83;2.87;;;;;;;;;;5061501;27;89562;-61
2024/01/29 04:54:16;;;;;;;5.90;2.87;;;;;;;;;;5068495;27;89623;-62
2024/01/29 04:56:44;;;;;;;5.93;3.00;;;;;;;;;;5069111;27;88873;-62
2024/01/29 04:59:14;;;;;;;4.43;2.90;;;;;;;;;;5068672;27;87774;-61
2024/01/29 05:01:43;;;;;;;9.33;3.20;;;;;;;;;;5071620;27;89635;-61
2024/01/29 05:04:15;;;;;;;4.07;2.40;;;;;;;;;;5068058;27;89216;-62
2024/01/29 05:06:43;;;;;;;5.90;3.73;;;;;;;;;;5071111;27;87688;-61
2024/01/29 05:09:12;;;;;;;5.27;3.50;;;;;;;;;;5068805;27;87646;-62
2024/01/29 05:11:44;;;;;;;4.87;3.20;;;;;;;;;;5071215;27;87354;-62
2024/01/29 05:14:13;;;;;;;3.93;3.10;;;;;;;;;;5066367;27;88032;-62
2024/01/29 05:16:41;;;;;;;7.80;3.20;;;;;;;;;;5070874;27;88756;-62
2024/01/29 05:19:09;;;;;;;4.77;3.83;;;;;;;;;;5060927;27;87995;-61
2024/01/29 05:21:38;;;;;;;10.27;3.80;;;;;;;;;;5063453;27;89592;-61
2024/01/29 05:24:08;;;;;;;8.07;4.03;;;;;;;;;;5059787;27;89210;-62
2024/01/29 05:26:36;;;;;;;4.93;3.83;;;;;;;;;;5060689;27;88692;-62
2024/01/29 05:29:11;;;;;;;8.87;4.63;;;;;;;;;;5069789;27;87573;-61
2024/01/29 05:31:40;;;;;;;7.73;3.63;;;;;;;;;;5069999;27;89575;-61
2024/01/29 05:34:09;;;;;;;5.73;3.47;;;;;;;;;;5072336;27;88298;-61
2024/01/29 05:36:40;;;;;;;4.47;3.73;;;;;;;;;;5071825;27;88783;-62
2024/01/29 05:39:10;;;;;;;7.23;3.50;;;;;;;;;;5071115;27;87648;-61
2024/01/29 05:41:40;;;;;;;6.50;4.13;;;;;;;;;;5072681;27;88776;-61
2024/01/29 05:44:10;;;;;;;7.17;4.43;;;;;;;;;;5072765;27;88887;-61
2024/01/29 05:46:38;;;;;;;4.67;2.87;;;;;;;;;;5071144;27;87832;-61
2024/01/29 05:49:09;;;;;;;6.50;3.50;;;;;;;;;;5069521;27;87812;-61
2024/01/29 05:51:38;;;;;;;5.73;3.47;;;;;;;;;;5071641;27;89995;-62
2024/01/29 05:54:06;;;;;;;7.53;4.87;;;;;;;;;;5072549;27;89212;-61
2024/01/29 05:56:36;;;;;;;8.13;3.87;;;;;;;;;;5068122;27;88795;-62
2024/01/29 05:59:08;;;;;;;4.87;3.50;;;;;;;;;;5071371;27;87588;-62
2024/01/29 06:01:38;;;;;;;9.07;4.17;;;;;;;;;;5066165;27;89764;-62
2024/01/29 06:04:06;;;;;;;4.60;3.40;;;;;;;;;;5072278;27;87859;-62
2024/01/29 06:06:35;;;;;;;5.57;4.07;;;;;;;;;;5068943;27;87717;-62
2024/01/29 06:09:05;;;;;;;3.60;3.10;;;;;;;;;;5070009;27;87591;-62
2024/01/29 06:11:35;;;;;;;8.17;3.73;;;;;;;;;;5067831;27;89656;-62
2024/01/29 06:14:03;;;;;;;4.87;3.10;;;;;;;;;;5070082;27;91215;-61
2024/01/29 06:16:32;;;;;;;3.40;2.83;;;;;;;;;;5070167;27;88865;-61
2024/01/29 06:19:03;;;;;;;5.93;4.17;;;;;;;;;;5068561;27;87754;-62
2024/01/29 06:21:33;;;;;;;8.53;4.37;;;;;;;;;;5069074;27;88739;-61
2024/01/29 06:24:03;;;;;;;8.27;4.67;;;;;;;;;;5070700;27;88217;-61
2024/01/29 06:26:31;;;;;;;5.67;3.67;;;;;;;;;;5071999;27;88831;-61
2024/01/29 06:28:59;;;;;;;6.33;4.10;;;;;;;;;;5071284;27;87312;-61
2024/01/29 06:31:29;;;;;;;5.70;3.63;;;;;;;;;;5069748;27;88547;-61
2024/01/29 06:33:59;;;;;;;7.03;3.53;;;;;;;;;;5070632;27;88648;-61
2024/01/29 06:36:29;;;;;;;4.40;3.20;;;;;;;;;;5072095;27;89130;-61
2024/01/29 06:38:58;;;;;;;5.40;4.07;;;;;;;;;;5067003;27;88711;-62
2024/01/29 06:41:26;;;;;;;5.93;3.27;;;;;;;;;;5071297;27;88545;-61
2024/01/29 06:43:55;;;;;;;5.10;2.87;;;;;;;;;;5067171;27;87431;-60
2024/01/29 06:46:26;;;;;;;7.97;3.33;;;;;;;;;;5069782;27;88731;-61
2024/01/29 06:48:54;;;;;;;5.87;3.67;;;;;;;;;;5068267;27;87579;-61
2024/01/29 06:51:23;;;;;;;6.70;3.00;;;;;;;;;;5070367;27;88611;-61
2024/01/29 06:53:54;;;;;;;3.47;3.07;;;;;;;;;;5071621;27;89320;-61
2024/01/29 06:56:22;;;;;;;4.27;2.97;;;;;;;;;;5068628;27;88700;-62
2024/01/29 06:58:50;;;;;;;4.70;3.50;;;;;;;;;;5069196;27;87711;-62
2024/01/29 07:01:20;;;;;;;7.70;3.87;;;;;;;;;;5070155;27;89597;-62
2024/01/29 07:03:51;;;;;;;4.13;2.40;;;;;;;;;;5071190;27;89929;-62
2024/01/29 07:06:20;;;;;;;8.17;3.17;;;;;;;;;;5070639;27;89775;-62
2024/01/29 07:08:49;;;;;;;5.17;2.97;;;;;;;;;;5068814;27;87624;-62
2024/01/29 07:11:19;;;;;;;4.87;3.10;;;;;;;;;;5068258;27;89684;-62
2024/01/29 07:13:47;;;;;;;3.73;2.90;;;;;;;;;;5069558;27;89284;-62
2024/01/29 07:16:16;;;;;;;5.80;3.17;;;;;;;;;;5070630;27;87724;-62
2024/01/29 07:18:45;;;;;;;3.67;2.53;;;;;;;;;;5071094;27;87667;-62
2024/01/29 07:21:13;;;;;;;7.77;3.13;;;;;;;;;;5069497;27;88519;-61
2024/01/29 07:23:41;;;;;;;5.30;3.30;;;;;;;;;;5076353;27;88140;-61
2024/01/29 07:26:10;;;;;;;5.37;3.20;;;;;;;;;;5077525;27;88854;-61
2024/01/29 07:28:40;;;;;;;5.23;3.50;;;;;;;;;;5074629;27;87915;-61
2024/01/29 07:31:08;;;;;;;5.50;3.23;;;;;;;;;;5075902;27;88511;-61
2024/01/29 07:33:37;;;;;;;2.67;2.43;;;;;;;;;;5076699;27;89216;-61
2024/01/29 07:36:06;;;;;;;5.23;3.20;;;;;;;;;;5076166;27;88760;-61
2024/01/29 07:38:34;;;;;;;4.10;3.17;;;;;;;;;;5073695;27;87598;-61
2024/01/29 07:41:03;;;;;;;2.93;2.70;;;;;;;;;;5076683;27;88523;-61
2024/01/29 07:43:31;;;;;;;3.93;2.90;;;;;;;;;;5076976;27;87531;-61
2024/01/29 07:46:01;;;;;;;4.43;2.73;;;;;;;;;;5076530;27;88994;-61
2024/01/29 07:48:30;;;;;;;4.70;2.33;;;;;;;;;;5076320;27;87567;-61
2024/01/29 07:50:58;;;;;;;3.67;2.30;;;;;;;;;;5076989;27;88471;-61
2024/01/29 07:53:28;;;;;;;3.87;2.37;;;;;;;;;;5077400;27;89949;-61
2024/01/29 07:55:56;;;;;;;7.57;3.07;;;;;;;;;;5073480;27;89879;-61
2024/01/29 07:58:26;;;;;;;6.07;3.33;;;;;;;;;;5075321;27;87422;-61
2024/01/29 08:00:54;;;;;;;6.07;2.47;;;;;;;;;;5072610;27;89664;-61
2024/01/29 08:03:25;;;;;;;4.93;2.67;;;;;;;;;;5076062;27;89100;-61
2024/01/29 08:05:53;;;;;;;3.47;2.50;;;;;;;;;;5073243;27;87447;-61
2024/01/29 08:08:22;;;;;;;3.90;2.53;;;;;;;;;;5076106;27;87666;-61
2024/01/29 08:10:50;;;;;;;3.00;2.37;;;;;;;;;;5076844;27;89676;-61
2024/01/29 08:13:18;;;;;;;3.53;2.80;;;;;;;;;;5075576;27;88231;-61
2024/01/29 08:15:47;;;;;;;2.93;2.63;;;;;;;;;;5075065;27;88876;-61
2024/01/29 08:18:15;;;;;;;3.57;2.73;;;;;;;;;;5072624;27;88008;-61
2024/01/29 08:20:45;;;;;;;3.13;2.47;;;;;;;;;;5076141;27;87240;-61
2024/01/29 08:23:16;;;;;;;3.73;2.20;;;;;;;;;;5071988;27;89050;-61
2024/01/29 08:25:46;;;;;;;5.17;2.73;;;;;;;;;;5075124;27;88874;-61
2024/01/29 08:28:14;;;;;;;3.90;2.10;;;;;;;;;;5072859;27;87554;-61
2024/01/29 08:30:43;;;;;;;4.80;2.97;;;;;;;;;;5076238;27;88513;-61
2024/01/29 08:33:11;;;;;;;2.90;2.23;;;;;;;;;;5071494;27;89061;-61
2024/01/29 08:35:41;;;;;;;3.70;2.00;;;;;;;;;;5074341;27;87735;-61
2024/01/29 08:38:11;;;;;;;2.73;2.43;;;;;;;;;;5071604;27;87589;-61
2024/01/29 08:40:40;;;;;;;2.73;2.43;;;;;;;;;;5072347;27;88454;-61
2024/01/29 08:43:09;;;;;;;4.30;2.57;;;;;;;;;;5073076;27;88988;-61
2024/01/29 08:45:39;;;;;;;3.83;2.27;;;;;;;;;;5072661;27;88861;-61
2024/01/29 08:48:07;;;;;;;2.67;2.47;;;;;;;;;;5072044;27;87353;-61
2024/01/29 08:50:37;;;;;;;2.73;2.47;;;;;;;;;;5069304;27;89521;-61
2024/01/29 08:53:06;;;;;;;2.47;2.27;;;;;;;;;;5071446;27;89151;-61
2024/01/29 08:55:35;;;;;;;1.93;1.70;;;;;;;;;;5069396;27;87724;-61
2024/01/29 08:58:04;;;;;;;4.53;2.00;;;;;;;;;;5072186;27;87567;-61
2024/01/29 09:00:33;;;;;;;3.60;2.57;;;;;;;;;;5069012;27;88427;-62
2024/01/29 09:03:02;;;;;;;5.00;2.23;;;;;;;;;;5072558;27;89117;-62
2024/01/29 09:05:30;;;;;;;2.70;2.17;;;;;;;;;;5073219;27;88863;-61
2024/01/29 09:07:59;;;;;;;2.37;1.70;;;;;;;;;;5071677;27;88409;-62
2024/01/29 09:10:42;;;;;;;4.57;2.40;;;;;;;;;;5069756;27;89744;-61
2024/01/29 09:13:13;;;;;;;3.90;2.53;;;;;;;;;;5070690;27;88751;-61
2024/01/29 09:15:41;;;;;;;3.37;2.60;;;;;;;;;;5071603;27;87902;-62
2024/01/29 09:18:10;;;;;;;2.50;2.30;;;;;;;;;;5073181;27;87671;-62
2024/01/29 09:20:38;;;;;;;2.13;2.00;;;;;;;;;;5071783;27;88698;-62
2024/01/29 09:23:07;;;;;;;3.10;2.17;;;;;;;;;;5071018;27;87915;-62
2024/01/29 09:25:36;;;;;;;3.00;2.27;;;;;;;;;;5069471;27;88735;-61
2024/01/29 09:28:06;;;;;;;4.77;2.00;;;;;;;;;;5072323;27;87758;-61
2024/01/29 09:30:34;;;;;;;2.47;2.10;;;;;;;;;;5068889;27;88730;-61
2024/01/29 09:33:06;;;;;;;1.70;1.47;;;;;;;;;;5070811;27;91617;-61
2024/01/29 09:35:47;;;;;;;1.80;1.57;;;;;;;;;;5071728;27;88914;-61
2024/01/29 09:38:15;;;;;;;2.17;2.00;;;;;;;;;;5069176;27;87551;-61
2024/01/29 09:40:45;;;;;;;2.37;1.93;;;;;;;;;;5071893;27;89434;-61
2024/01/29 09:43:15;;;;;;;3.10;2.07;;;;;;;;;;5067997;27;89133;-61
2024/01/29 09:45:43;;;;;;;2.17;1.70;;;;;;;;;;5070887;27;88897;-61
2024/01/29 09:48:13;;;;;;;2.27;1.97;;;;;;;;;;5073266;27;87620;-61
2024/01/29 09:50:42;;;;;;;1.93;1.73;;;;;;;;;;5072353;27;89729;-61
2024/01/29 09:53:11;;;;;;;3.33;1.60;;;;;;;;;;5070512;27;89367;-61
2024/01/29 09:55:39;;;;;;;1.10;1.07;;;;;;;;;;5071164;27;89075;-62
2024/01/29 09:58:07;;;;;;;4.53;1.90;;;;;;;;;;5071503;27;87964;-61
2024/01/29 10:00:37;;;;;;;4.33;2.30;;;;;;;;;;5068419;27;88142;-61
2024/01/29 10:03:06;;;;;;;2.47;2.27;;;;;;;;;;5070935;27;89134;-61
2024/01/29 10:05:35;;;;;;;2.10;1.70;;;;;;;;;;5068310;27;87725;-61
2024/01/29 10:08:04;;;;;;;2.30;1.60;;;;;;;;;;5071316;27;87614;-62
2024/01/29 10:10:32;;;;;;;3.57;2.30;;;;;;;;;;5072124;27;88999;-61
2024/01/29 10:13:04;;;;;;;2.80;2.50;;;;;;;;;;5071294;27;88172;-61
2024/01/29 10:15:33;;;;;;;3.47;2.77;;;;;;;;;;5069833;27;87738;-61
2024/01/29 10:18:03;;;;;;;4.20;2.43;;;;;;;;;;5071080;27;87363;-60
2024/01/29 10:20:31;;;;;;;3.23;2.43;;;;;;;;;;5070613;27;89427;-62
2024/01/29 10:23:00;;;;;;;4.97;2.73;;;;;;;;;;5069637;27;89831;-62
2024/01/29 10:25:29;;;;;;;2.60;1.87;;;;;;;;;;5069770;27;89662;-62
2024/01/29 10:28:05;;;;;;;3.30;2.63;;;;;;;;;;5069154;27;87515;-62
2024/01/29 10:30:33;;;;;;;3.80;3.07;;;;;;;;;;5070324;27;89538;-62
2024/01/29 10:33:03;;;;;;;3.20;2.90;;;;;;;;;;5070590;27;89026;-62
2024/01/29 10:35:33;;;;;;;4.80;2.20;;;;;;;;;;5071439;27;87580;-62
2024/01/29 10:38:03;;;;;;;3.43;2.93;;;;;;;;;;5070877;27;87635;-62
2024/01/29 10:40:31;;;;;;;7.50;3.57;;;;;;;;;;5078408;27;88506;-62
2024/01/29 10:43:00;;;;;;;3.90;3.10;;;;;;;;;;5062191;27;88232;-62
2024/01/29 10:45:29;;;;;;;4.53;3.40;;;;;;;;;;5053624;27;87699;-62
2024/01/29 10:48:00;;;;;;;4.40;3.13;;;;;;;;;;5041206;27;90022;-62
2024/01/29 10:50:30;;;;;;;4.70;2.90;;;;;;;;;;5041016;28;89844;-62
2024/01/29 10:52:58;;;;;;;4.17;3.77;;;;;;;;;;5040392;27;89154;-62
2024/01/29 10:55:30;;;;;;;4.70;3.30;;;;;;;;;;5043068;27;87837;-61
2024/01/29 10:58:00;;;;;;;4.50;3.20;;;;;;;;;;5058218;27;87465;-62
2024/01/29 11:00:31;;;;;;;4.77;3.30;;;;;;;;;;5060641;27;88738;-62
2024/01/29 11:03:01;;;;;;;5.27;3.77;;;;;;;;;;5061356;27;88155;-62
2024/01/29 11:05:31;;;;;;;5.43;3.87;;;;;;;;;;5061255;27;88796;-62
2024/01/29 11:08:01;;;;;;;4.13;3.27;;;;;;;;;;5060939;27;87742;-62
2024/01/29 11:10:32;;;;;;;4.90;3.43;;;;;;;;;;5060452;27;89685;-62
2024/01/29 11:13:01;;;;;;;4.63;3.67;;;;;;;;;;5068857;27;89020;-62
2024/01/29 11:15:29;;;;;;;4.07;3.30;;;;;;;;;;5068822;27;88306;-61
2024/01/29 11:17:58;;;;;;;5.10;3.60;;;;;;;;;;5067043;27;87682;-62
2024/01/29 11:20:26;;;;;;;7.03;3.57;;;;;;;;;;5068779;27;89558;-62
2024/01/29 11:22:57;;;;;;;5.20;3.30;;;;;;;;;;5070382;27;87436;-62
2024/01/29 11:25:26;;;;;;;5.17;3.37;;;;;;;;;;5071086;27;87751;-61
2024/01/29 11:28:00;;;;;;;5.40;3.27;;;;;;;;;;5069356;27;87442;-61
2024/01/29 11:30:29;;;;;;;4.80;3.37;;;;;;;;;;5069016;27;88707;-61
2024/01/29 11:33:13;;;;;;;5.50;3.37;;;;;;;;;;5067018;27;89248;-61
2024/01/29 11:35:41;;;;;;;4.23;3.53;;;;;;;;;;5068314;27;90773;-62
2024/01/29 11:38:20;;;;;;;5.27;3.10;;;;;;;;;;5068775;27;87944;-62
2024/01/29 11:40:49;;;;;;;4.97;4.20;;;;;;;;;;5069270;27;89689;-61
2024/01/29 11:43:17;;;;;;;4.10;3.70;;;;;;;;;;5066512;27;87730;-61
2024/01/29 11:45:47;;;;;;;5.67;3.70;;;;;;;;;;5069336;27;88740;-61
2024/01/29 11:48:16;;;;;;;4.10;3.17;;;;;;;;;;5071051;27;87574;-61
2024/01/29 11:50:45;;;;;;;6.77;4.20;;;;;;;;;;5070533;27;89685;-62
2024/01/29 11:53:14;;;;;;;5.43;4.03;;;;;;;;;;5070982;27;89126;-61
2024/01/29 11:55:44;;;;;;;4.60;3.87;;;;;;;;;;5069661;27;88643;-61
2024/01/29 11:58:13;;;;;;;4.67;3.97;;;;;;;;;;5068442;27;87602;-61
2024/01/29 12:00:43;;;;;;;8.27;4.67;;;;;;;;;;5070215;27;89807;-62
2024/01/29 12:03:12;;;;;;;4.40;3.43;;;;;;;;;;5070205;27;88929;-61
2024/01/29 12:05:41;;;;;;;8.83;5.10;;;;;;;;;;5069800;27;88465;-61
2024/01/29 12:08:13;;;;;;;8.60;3.77;;;;;;;;;;5071338;27;87501;-61
2024/01/29 12:10:45;;;;;;;5.67;3.47;;;;;;;;;;5069847;27;89649;-61
2024/01/29 12:13:14;;;;;;;6.97;4.57;;;;;;;;;;5072492;27;88058;-61
2024/01/29 12:15:44;;;;;;;8.40;5.07;;;;;;;;;;5073340;27;88894;-61
2024/01/29 12:18:15;;;;;;;6.53;4.67;;;;;;;;;;5074401;27;87629;-61
2024/01/29 12:20:43;;;;;;;8.50;5.00;;;;;;;;;;5073592;27;89722;-62
2024/01/29 12:23:13;;;;;;;11.57;5.87;;;;;;;;;;5072070;27;89131;-61
2024/01/29 12:25:42;;;;;;;5.73;4.43;;;;;;;;;;5072670;27;87741;-61
2024/01/29 12:28:15;;;;;;;8.03;5.23;;;;;;;;;;5079235;27;88237;-61
2024/01/29 12:30:44;;;;;;;7.03;4.50;;;;;;;;;;5083398;27;89602;-62
2024/01/29 12:33:18;;;;;;;7.07;5.67;;;;;;;;;;5083441;27;87955;-61
2024/01/29 12:35:46;;;;;;;7.07;5.37;;;;;;;;;;5083544;27;88667;-61
2024/01/29 12:38:17;;;;;;;7.83;5.43;;;;;;;;;;5083717;27;87438;-61
2024/01/29 12:40:46;;;;;;;8.73;5.43;;;;;;;;;;5083380;27;88574;-61
2024/01/29 12:43:16;;;;;;;9.50;6.10;;;;;;;;;;5083926;27;87326;-61
2024/01/29 12:45:45;;;;;;;10.20;5.60;;;;;;;;;;5083866;27;88854;-61
2024/01/29 12:48:17;;;;;;;6.40;4.10;;;;;;;;;;5083648;27;87056;-61
2024/01/29 12:50:48;;;;;;;11.07;4.77;;;;;;;;;;5083089;27;87533;-61
2024/01/29 12:53:17;;;;;;;7.97;4.77;;;;;;;;;;5082461;27;90043;-61
2024/01/29 12:55:47;;;;;;;10.83;6.47;;;;;;;;;;5067604;27;89842;-61
2024/01/29 12:58:17;;;;;;;5.27;4.20;;;;;;;;;;5043159;28;87646;-61
2024/01/29 13:00:45;;;;;;;9.53;5.20;;;;;;;;;;5045107;27;88548;-61
2024/01/29 13:03:13;;;;;;;5.80;5.00;;;;;;;;;;5059386;27;89091;-61
2024/01/29 13:05:42;;;;;;;8.53;5.43;;;;;;;;;;5063218;27;87746;-61
2024/01/29 13:08:10;;;;;;;7.83;5.67;;;;;;;;;;5063412;27;87676;-60
2024/01/29 13:10:39;;;;;;;8.87;5.23;;;;;;;;;;5062262;27;89646;-61
2024/01/29 13:13:07;;;;;;;10.80;6.37;;;;;;;;;;5062234;27;89077;-61
2024/01/29 13:15:41;;;;;;;10.23;5.70;;;;;;;;;;5062511;27;87839;-61
2024/01/29 13:18:11;;;;;;;14.90;6.57;;;;;;;;;;5061299;27;87908;-62
2024/01/29 13:20:41;;;;;;;8.07;5.57;;;;;;;;;;5062660;27;89641;-62
2024/01/29 13:23:10;;;;;;;12.50;7.10;;;;;;;;;;5062318;27;88304;-62
2024/01/29 13:25:39;;;;;;;8.27;4.87;;;;;;;;;;5062366;27;88974;-62
2024/01/29 13:28:08;;;;;;;9.73;6.50;;;;;;;;;;5062266;27;87481;-61
2024/01/29 13:30:39;;;;;;;9.33;6.00;;;;;;;;;;5061879;27;88732;-61
2024/01/29 13:33:08;;;;;;;9.73;5.60;;;;;;;;;;5061906;27;87426;-60
2024/01/29 13:35:37;;;;;;;9.53;5.33;;;;;;;;;;5062285;27;88793;-62
2024/01/29 13:38:05;;;;;;;7.97;5.20;;;;;;;;;;5062069;27;87521;-60
2024/01/29 13:40:34;;;;;;;11.97;6.70;;;;;;;;;;5061866;27;89825;-61
2024/01/29 13:43:02;;;;;;;8.00;5.07;;;;;;;;;;5061506;27;88980;-60
2024/01/29 13:45:31;;;;;;;6.93;4.80;;;;;;;;;;5061776;27;90092;-61
2024/01/29 13:48:02;;;;;;;8.67;5.63;;;;;;;;;;5061901;27;87603;-60
2024/01/29 13:50:31;;;;;;;6.67;5.23;;;;;;;;;;5062071;27;89341;-61
2024/01/29 13:52:59;;;;;;;7.63;5.70;;;;;;;;;;5062146;27;87968;-60
2024/01/29 13:55:27;;;;;;;8.70;5.67;;;;;;;;;;5061953;27;87510;-61
2024/01/29 13:57:56;;;;;;;9.17;5.30;;;;;;;;;;5055138;27;87596;-61
2024/01/29 14:00:25;;;;;;;8.97;5.40;;;;;;;;;;5049239;27;89717;-61
2024/01/29 14:02:54;;;;;;;8.10;6.23;;;;;;;;;;5062293;27;88009;-61
2024/01/29 14:05:23;;;;;;;9.13;5.80;;;;;;;;;;5058567;27;88738;-61
2024/01/29 14:07:52;;;;;;;9.40;6.47;;;;;;;;;;5041076;28;87744;-61
2024/01/29 14:10:21;;;;;;;8.70;5.17;;;;;;;;;;5049775;27;90258;-62
2024/01/29 14:12:50;;;;;;;7.40;5.47;;;;;;;;;;5061847;27;87881;-61
2024/01/29 14:15:18;;;;;;;8.43;5.30;;;;;;;;;;5043730;27;88858;-63
2024/01/29 14:17:50;;;;;;;6.60;4.33;;;;;;;;;;5040028;27;87615;-61
2024/01/29 14:20:19;;;;;;;7.30;4.83;;;;;;;;;;5040608;27;88693;-62
2024/01/29 14:22:55;;;;;;;9.97;5.80;;;;;;;;;;5040128;27;88929;-62
2024/01/29 14:25:26;;;;;;;8.47;5.13;;;;;;;;;;5040823;27;87748;-62
2024/01/29 14:27:54;;;;;;;7.43;5.23;;;;;;;;;;5040831;27;87522;-61
2024/01/29 14:30:25;;;;;;;5.87;4.53;;;;;;;;;;5040033;28;89830;-60
2024/01/29 14:32:54;;;;;;;10.43;5.13;;;;;;;;;;5040251;27;90041;-61
2024/01/29 14:35:22;;;;;;;6.87;5.30;;;;;;;;;;5040748;27;89665;-60
2024/01/29 14:37:54;;;;;;;9.00;4.80;;;;;;;;;;5041335;27;87911;-60
2024/01/29 14:40:22;;;;;;;6.17;4.00;;;;;;;;;;5041622;27;89659;-61
2024/01/29 14:42:51;;;;;;;7.27;5.00;;;;;;;;;;5040119;28;89106;-61
2024/01/29 14:45:21;;;;;;;6.63;4.17;;;;;;;;;;5040900;28;87726;-61
2024/01/29 14:47:49;;;;;;;6.73;4.33;;;;;;;;;;5041162;27;87850;-60
2024/01/29 14:50:18;;;;;;;6.50;5.07;;;;;;;;;;5041540;27;89575;-61
2024/01/29 14:52:46;;;;;;;10.03;4.30;;;;;;;;;;5040494;27;88210;-60
2024/01/29 14:55:16;;;;;;;9.20;4.67;;;;;;;;;;5040478;27;87798;-60